createdAt,value
2023-03-24T00:00:20.600Z,98.63
2023-03-24T00:01:20.503Z,98.07
2023-03-24T00:02:20.514Z,98.07
2023-03-24T00:03:20.623Z,98.43
2023-03-24T00:04:20.562Z,96.95
2023-03-24T00:05:20.493Z,96.84
2023-03-24T00:06:20.463Z,96.74
2023-03-24T00:07:21.114Z,96.33
2023-03-24T00:08:20.455Z,96.64
2023-03-24T00:09:20.441Z,96.84
2023-03-24T00:10:20.518Z,96.74
2023-03-24T00:11:20.433Z,96.54
2023-03-24T00:12:20.438Z,96.13
2023-03-24T00:13:20.418Z,96.54
2023-03-24T00:14:20.401Z,96.03
2023-03-24T00:15:20.428Z,96.44
2023-03-24T00:16:20.480Z,96.54
2023-03-24T00:17:20.378Z,96.33
2023-03-24T00:18:20.372Z,96.23
2023-03-24T00:19:20.372Z,96.23
2023-03-24T00:20:20.508Z,96.33
2023-03-24T00:21:20.384Z,96.44
2023-03-24T00:22:20.341Z,96.44
2023-03-24T00:23:20.329Z,95.51
2023-03-24T00:24:20.324Z,96.44
2023-03-24T00:25:20.335Z,96.33
2023-03-24T00:26:20.305Z,96.33
2023-03-24T00:27:20.312Z,96.64
2023-03-24T00:28:20.325Z,95.72
2023-03-24T00:29:20.285Z,95.92
2023-03-24T00:30:20.298Z,95.62
2023-03-24T00:31:20.326Z,95.72
2023-03-24T00:32:20.270Z,95.78
2023-03-24T00:33:20.279Z,95.67
2023-03-24T00:34:20.254Z,95.37
2023-03-24T00:35:20.251Z,95.41
2023-03-24T00:36:20.272Z,95.37
2023-03-24T00:37:20.222Z,95.47
2023-03-24T00:38:20.277Z,94.90
2023-03-24T00:39:20.244Z,95.10
2023-03-24T00:40:20.227Z,95.41
2023-03-24T00:41:20.502Z,95.26
2023-03-24T00:42:20.203Z,95.26
2023-03-24T00:43:20.188Z,94.80
2023-03-24T00:44:20.174Z,95.26
2023-03-24T00:45:20.347Z,95.17
2023-03-24T00:46:20.166Z,95.00
2023-03-24T00:47:20.152Z,94.96
2023-03-24T00:48:20.163Z,94.59
2023-03-24T00:49:20.140Z,94.65
2023-03-24T00:50:20.205Z,94.75
2023-03-24T00:51:20.121Z,94.75
2023-03-24T00:52:20.113Z,94.55
2023-03-24T00:53:20.121Z,94.55
2023-03-24T00:54:20.209Z,94.04
2023-03-24T00:55:20.101Z,93.93
2023-03-24T00:56:20.078Z,94.14
2023-03-24T00:57:20.101Z,94.04
2023-03-24T00:58:20.071Z,93.07
2023-03-24T00:59:20.056Z,93.93
2023-03-24T01:00:20.056Z,93.84
2023-03-24T01:01:20.086Z,93.18
2023-03-24T01:02:20.061Z,93.07
2023-03-24T01:03:20.044Z,93.69
2023-03-24T01:04:20.217Z,93.89
2023-03-24T01:05:20.009Z,93.48
2023-03-24T01:06:20.019Z,93.28
2023-03-24T01:07:19.991Z,92.97
2023-03-24T01:08:19.988Z,92.97
2023-03-24T01:09:19.974Z,93.07
2023-03-24T01:10:19.966Z,92.97
2023-03-24T01:11:19.958Z,92.87
2023-03-24T01:12:19.949Z,93.01
2023-03-24T01:13:19.948Z,93.07
2023-03-24T01:14:19.936Z,93.69
2023-03-24T01:15:19.930Z,93.73
2023-03-24T01:16:19.966Z,92.91
2023-03-24T01:17:19.908Z,93.28
2023-03-24T01:18:19.898Z,93.22
2023-03-24T01:19:19.894Z,93.32
2023-03-24T01:20:19.886Z,93.28
2023-03-24T01:21:19.878Z,93.32
2023-03-24T01:22:19.872Z,92.97
2023-03-24T01:23:19.873Z,93.22
2023-03-24T01:24:19.853Z,93.12
2023-03-24T01:25:19.889Z,92.56
2023-03-24T01:26:19.854Z,92.91
2023-03-24T01:27:19.829Z,93.18
2023-03-24T01:28:19.822Z,93.01
2023-03-24T01:29:19.816Z,93.07
2023-03-24T01:30:19.833Z,92.97
2023-03-24T01:31:19.818Z,92.87
2023-03-24T01:32:19.915Z,93.32
2023-03-24T01:33:19.783Z,93.12
2023-03-24T01:34:19.774Z,93.32
2023-03-24T01:35:19.765Z,93.28
2023-03-24T01:36:19.777Z,93.18
2023-03-24T01:37:19.749Z,93.28
2023-03-24T01:38:19.754Z,93.32
2023-03-24T01:39:19.773Z,93.22
2023-03-24T01:40:19.728Z,93.01
2023-03-24T01:41:19.783Z,93.18
2023-03-24T01:42:19.712Z,93.12
2023-03-24T01:43:19.711Z,92.91
2023-03-24T01:44:19.693Z,92.91
2023-03-24T01:45:19.690Z,93.12
2023-03-24T01:46:19.730Z,93.01
2023-03-24T01:47:19.676Z,92.36
2023-03-24T01:48:19.673Z,93.52
2023-03-24T01:49:19.658Z,93.63
2023-03-24T01:50:19.652Z,93.63
2023-03-24T01:51:19.645Z,93.01
2023-03-24T01:52:19.638Z,93.22
2023-03-24T01:53:19.627Z,93.18
2023-03-24T01:54:19.643Z,93.12
2023-03-24T01:55:19.613Z,93.07
2023-03-24T01:56:19.604Z,92.87
2023-03-24T01:57:19.604Z,93.12
2023-03-24T01:58:19.592Z,93.32
2023-03-24T01:59:19.613Z,93.84
2023-03-24T02:00:19.592Z,93.73
2023-03-24T02:01:19.665Z,93.79
2023-03-24T02:02:19.557Z,93.12
2023-03-24T02:03:19.557Z,93.22
2023-03-24T02:04:19.602Z,93.12
2023-03-24T02:05:19.553Z,93.32
2023-03-24T02:06:19.528Z,92.91
2023-03-24T02:07:19.520Z,93.01
2023-03-24T02:08:19.513Z,93.28
2023-03-24T02:09:19.507Z,93.38
2023-03-24T02:10:19.499Z,93.01
2023-03-24T02:11:19.491Z,92.97
2023-03-24T02:12:19.483Z,93.07
2023-03-24T02:13:19.475Z,93.12
2023-03-24T02:14:19.467Z,93.38
2023-03-24T02:15:19.505Z,92.87
2023-03-24T02:16:19.478Z,93.28
2023-03-24T02:17:19.444Z,92.97
2023-03-24T02:18:19.498Z,93.22
2023-03-24T02:19:19.428Z,93.01
2023-03-24T02:20:19.427Z,93.28
2023-03-24T02:21:19.418Z,93.07
2023-03-24T02:22:19.403Z,93.07
2023-03-24T02:23:19.401Z,93.18
2023-03-24T02:24:19.392Z,92.87
2023-03-24T02:25:19.386Z,92.77
2023-03-24T02:26:19.405Z,92.56
2023-03-24T02:27:19.367Z,92.87
2023-03-24T02:28:19.358Z,93.18
2023-03-24T02:29:19.352Z,92.46
2023-03-24T02:30:19.345Z,92.36
2023-03-24T02:31:19.362Z,92.42
2023-03-24T02:32:19.328Z,92.25
2023-03-24T02:33:19.319Z,92.56
2023-03-24T02:34:19.316Z,92.11
2023-03-24T02:35:19.307Z,92.11
2023-03-24T02:36:19.330Z,92.11
2023-03-24T02:37:19.292Z,92.52
2023-03-24T02:38:19.280Z,92.01
2023-03-24T02:39:19.275Z,91.80
2023-03-24T02:40:19.268Z,92.11
2023-03-24T02:41:19.261Z,92.11
2023-03-24T02:42:19.254Z,91.70
2023-03-24T02:43:19.255Z,91.60
2023-03-24T02:44:19.241Z,91.50
2023-03-24T02:45:19.228Z,91.05
2023-03-24T02:46:19.279Z,91.05
2023-03-24T02:47:19.212Z,91.05
2023-03-24T02:48:19.201Z,91.35
2023-03-24T02:49:19.195Z,91.25
2023-03-24T02:50:19.185Z,91.05
2023-03-24T02:51:19.177Z,90.84
2023-03-24T02:52:19.173Z,91.66
2023-03-24T02:53:19.187Z,92.27
2023-03-24T02:54:19.153Z,92.27
2023-03-24T02:55:19.157Z,92.88
2023-03-24T02:56:19.138Z,92.27
2023-03-24T02:57:19.130Z,92.68
2023-03-24T02:58:19.131Z,92.47
2023-03-24T02:59:19.121Z,93.09
2023-03-24T03:00:19.114Z,92.58
2023-03-24T03:01:19.145Z,93.40
2023-03-24T03:02:19.091Z,93.60
2023-03-24T03:03:19.086Z,92.78
2023-03-24T03:04:19.097Z,93.91
2023-03-24T03:05:19.073Z,93.95
2023-03-24T03:06:19.059Z,94.06
2023-03-24T03:07:19.053Z,94.26
2023-03-24T03:08:19.097Z,94.06
2023-03-24T03:09:19.036Z,94.77
2023-03-24T03:10:19.029Z,94.56
2023-03-24T03:11:19.027Z,94.52
2023-03-24T03:12:19.015Z,94.56
2023-03-24T03:13:19.005Z,94.56
2023-03-24T03:14:18.998Z,94.67
2023-03-24T03:15:18.990Z,93.95
2023-03-24T03:16:19.047Z,94.87
2023-03-24T03:17:18.993Z,94.97
2023-03-24T03:18:18.965Z,95.07
2023-03-24T03:19:18.968Z,94.56
2023-03-24T03:20:18.952Z,94.97
2023-03-24T03:21:18.947Z,95.07
2023-03-24T03:22:18.936Z,95.07
2023-03-24T03:23:18.941Z,95.07
2023-03-24T03:24:18.923Z,94.62
2023-03-24T03:25:18.958Z,94.87
2023-03-24T03:26:18.908Z,94.77
2023-03-24T03:27:18.910Z,94.97
2023-03-24T03:28:18.900Z,95.07
2023-03-24T03:29:18.888Z,95.18
2023-03-24T03:30:18.882Z,95.18
2023-03-24T03:31:18.898Z,95.03
2023-03-24T03:32:18.879Z,95.07
2023-03-24T03:33:18.860Z,95.59
2023-03-24T03:34:18.852Z,95.89
2023-03-24T03:35:18.842Z,95.79
2023-03-24T03:36:18.836Z,96.00
2023-03-24T03:37:18.848Z,95.69
2023-03-24T03:38:18.820Z,95.48
2023-03-24T03:39:18.813Z,96.20
2023-03-24T03:40:18.821Z,96.10
2023-03-24T03:41:18.801Z,95.69
2023-03-24T03:42:18.788Z,95.79
2023-03-24T03:43:18.781Z,95.69
2023-03-24T03:44:18.780Z,95.79
2023-03-24T03:45:18.763Z,95.48
2023-03-24T03:46:18.806Z,96.10
2023-03-24T03:47:18.749Z,96.20
2023-03-24T03:48:18.743Z,95.89
2023-03-24T03:49:18.735Z,96.61
2023-03-24T03:50:18.726Z,96.51
2023-03-24T03:51:18.731Z,96.41
2023-03-24T03:52:18.748Z,96.61
2023-03-24T03:53:18.703Z,96.61
2023-03-24T03:54:18.695Z,96.61
2023-03-24T03:55:18.688Z,96.92
2023-03-24T03:56:18.681Z,97.12
2023-03-24T03:57:18.671Z,97.22
2023-03-24T03:58:18.668Z,97.37
2023-03-24T03:59:18.658Z,96.92
2023-03-24T04:00:18.648Z,98.08
2023-03-24T04:01:18.666Z,98.19
2023-03-24T04:02:18.661Z,98.14
2023-03-24T04:03:18.727Z,97.88
2023-03-24T04:04:18.621Z,97.74
2023-03-24T04:05:18.609Z,98.14
2023-03-24T04:06:18.600Z,97.83
2023-03-24T04:07:18.598Z,97.88
2023-03-24T04:08:18.583Z,97.83
2023-03-24T04:09:18.576Z,98.04
2023-03-24T04:10:18.568Z,97.94
2023-03-24T04:11:18.574Z,97.83
2023-03-24T04:12:18.589Z,97.94
2023-03-24T04:13:18.543Z,97.53
2023-03-24T04:14:18.560Z,97.94
2023-03-24T04:15:18.531Z,97.53
2023-03-24T04:16:18.532Z,98.04
2023-03-24T04:17:18.515Z,97.83
2023-03-24T04:18:18.513Z,97.94
2023-03-24T04:19:18.500Z,97.74
2023-03-24T04:20:18.489Z,98.04
2023-03-24T04:21:18.506Z,97.53
2023-03-24T04:22:18.481Z,97.74
2023-03-24T04:23:18.470Z,97.94
2023-03-24T04:24:18.458Z,97.74
2023-03-24T04:25:18.452Z,97.69
2023-03-24T04:26:18.442Z,97.94
2023-03-24T04:27:18.436Z,97.74
2023-03-24T04:28:18.429Z,97.94
2023-03-24T04:29:18.423Z,97.79
2023-03-24T04:30:18.414Z,97.83
2023-03-24T04:31:18.409Z,97.79
2023-03-24T04:32:18.394Z,97.69
2023-03-24T04:33:18.395Z,98.04
2023-03-24T04:34:18.392Z,97.79
2023-03-24T04:35:18.376Z,97.79
2023-03-24T04:36:18.392Z,97.69
2023-03-24T04:37:18.357Z,97.79
2023-03-24T04:38:18.410Z,97.49
2023-03-24T04:39:18.344Z,97.89
2023-03-24T04:40:18.337Z,97.99
2023-03-24T04:41:18.326Z,97.94
2023-03-24T04:42:18.318Z,97.89
2023-03-24T04:43:18.310Z,98.10
2023-03-24T04:44:18.300Z,97.08
2023-03-24T04:45:18.309Z,97.08
2023-03-24T04:46:18.371Z,98.14
2023-03-24T04:47:18.288Z,97.99
2023-03-24T04:48:18.282Z,98.10
2023-03-24T04:49:18.263Z,97.99
2023-03-24T04:50:18.255Z,98.10
2023-03-24T04:51:18.246Z,96.87
2023-03-24T04:52:18.311Z,97.89
2023-03-24T04:53:18.231Z,97.99
2023-03-24T04:54:18.222Z,96.97
2023-03-24T04:55:18.218Z,96.87
2023-03-24T04:56:18.208Z,97.08
2023-03-24T04:57:18.202Z,96.87
2023-03-24T04:58:18.189Z,96.56
2023-03-24T04:59:18.186Z,96.83
2023-03-24T05:00:18.175Z,96.62
2023-03-24T05:01:18.235Z,96.67
2023-03-24T05:02:18.992Z,96.51
2023-03-24T05:03:18.160Z,96.21
2023-03-24T05:04:18.227Z,96.31
2023-03-24T05:05:18.136Z,96.42
2023-03-24T05:06:18.136Z,96.56
2023-03-24T05:07:18.122Z,96.51
2023-03-24T05:08:18.113Z,96.51
2023-03-24T05:09:18.106Z,96.31
2023-03-24T05:10:19.544Z,96.72
2023-03-24T05:11:18.096Z,96.42
2023-03-24T05:12:18.079Z,96.72
2023-03-24T05:13:18.079Z,96.42
2023-03-24T05:14:18.066Z,96.42
2023-03-24T05:15:18.059Z,95.70
2023-03-24T05:16:18.070Z,95.80
2023-03-24T05:17:18.054Z,95.80
2023-03-24T05:18:18.036Z,95.90
2023-03-24T05:19:18.028Z,95.80
2023-03-24T05:20:18.024Z,95.80
2023-03-24T05:21:18.013Z,95.80
2023-03-24T05:22:18.003Z,95.90
2023-03-24T05:23:18.001Z,95.80
2023-03-24T05:24:17.994Z,95.90
2023-03-24T05:25:17.987Z,95.15
2023-03-24T05:26:17.975Z,96.01
2023-03-24T05:27:17.966Z,96.21
2023-03-24T05:28:17.962Z,95.70
2023-03-24T05:29:17.951Z,95.39
2023-03-24T05:30:17.958Z,95.56
2023-03-24T05:31:17.989Z,95.35
2023-03-24T05:32:17.927Z,95.04
2023-03-24T05:33:17.918Z,94.94
2023-03-24T05:34:17.910Z,95.04
2023-03-24T05:35:17.908Z,94.64
2023-03-24T05:36:17.938Z,94.74
2023-03-24T05:37:17.897Z,94.84
2023-03-24T05:38:17.880Z,95.56
2023-03-24T05:39:17.884Z,94.94
2023-03-24T05:40:17.879Z,95.45
2023-03-24T05:41:17.867Z,94.94
2023-03-24T05:42:17.851Z,94.84
2023-03-24T05:43:17.845Z,94.74
2023-03-24T05:44:17.836Z,95.04
2023-03-24T05:45:17.829Z,94.70
2023-03-24T05:46:17.864Z,95.00
2023-03-24T05:47:17.819Z,95.04
2023-03-24T05:48:17.807Z,94.70
2023-03-24T05:49:17.797Z,95.00
2023-03-24T05:50:17.790Z,95.00
2023-03-24T05:51:17.790Z,95.10
2023-03-24T05:52:17.782Z,94.70
2023-03-24T05:53:17.769Z,94.59
2023-03-24T05:54:17.768Z,95.00
2023-03-24T05:55:17.756Z,95.00
2023-03-24T05:56:17.767Z,95.00
2023-03-24T05:57:17.737Z,94.90
2023-03-24T05:58:17.732Z,95.10
2023-03-24T05:59:17.723Z,94.79
2023-03-24T06:00:17.716Z,94.70
2023-03-24T06:01:17.710Z,94.79
2023-03-24T06:02:17.715Z,95.00
2023-03-24T06:03:18.018Z,94.49
2023-03-24T06:04:17.720Z,94.79
2023-03-24T06:05:17.692Z,95.00
2023-03-24T06:06:17.683Z,94.70
2023-03-24T06:07:17.665Z,94.29
2023-03-24T06:08:17.665Z,94.79
2023-03-24T06:09:17.651Z,94.79
2023-03-24T06:10:17.647Z,94.59
2023-03-24T06:11:17.638Z,94.70
2023-03-24T06:12:17.629Z,94.70
2023-03-24T06:13:17.680Z,94.45
2023-03-24T06:14:17.616Z,94.45
2023-03-24T06:15:17.649Z,94.65
2023-03-24T06:16:17.649Z,94.55
2023-03-24T06:17:17.600Z,94.24
2023-03-24T06:18:17.582Z,94.14
2023-03-24T06:19:17.581Z,93.84
2023-03-24T06:20:17.569Z,94.14
2023-03-24T06:21:17.560Z,94.04
2023-03-24T06:22:17.553Z,93.63
2023-03-24T06:23:17.546Z,93.52
2023-03-24T06:24:17.539Z,93.84
2023-03-24T06:25:17.530Z,93.48
2023-03-24T06:26:17.526Z,93.63
2023-03-24T06:27:17.524Z,93.22
2023-03-24T06:28:17.506Z,93.32
2023-03-24T06:29:17.503Z,93.22
2023-03-24T06:30:17.506Z,92.67
2023-03-24T06:31:17.551Z,92.77
2023-03-24T06:32:17.485Z,93.18
2023-03-24T06:33:17.477Z,92.77
2023-03-24T06:34:17.467Z,92.97
2023-03-24T06:35:17.472Z,92.87
2023-03-24T06:36:17.452Z,92.87
2023-03-24T06:37:17.448Z,92.97
2023-03-24T06:38:17.439Z,92.77
2023-03-24T06:39:17.432Z,92.77
2023-03-24T06:40:17.461Z,93.33
2023-03-24T06:41:17.417Z,93.18
2023-03-24T06:42:17.410Z,93.59
2023-03-24T06:43:17.403Z,93.18
2023-03-24T06:44:17.404Z,93.59
2023-03-24T06:45:17.462Z,93.64
2023-03-24T06:46:17.449Z,94.05
2023-03-24T06:47:17.378Z,94.30
2023-03-24T06:48:17.393Z,94.46
2023-03-24T06:49:17.386Z,94.60
2023-03-24T06:50:17.358Z,94.20
2023-03-24T06:51:17.357Z,94.56
2023-03-24T06:52:17.343Z,94.46
2023-03-24T06:53:17.332Z,94.56
2023-03-24T06:54:17.326Z,93.95
2023-03-24T06:55:17.319Z,94.05
2023-03-24T06:56:17.380Z,94.15
2023-03-24T06:57:17.299Z,94.26
2023-03-24T06:58:17.301Z,93.85
2023-03-24T06:59:17.292Z,94.05
2023-03-24T07:00:17.290Z,94.05
2023-03-24T07:01:17.291Z,94.56
2023-03-24T07:02:17.269Z,94.35
2023-03-24T07:03:17.360Z,93.74
2023-03-24T07:04:17.260Z,94.15
2023-03-24T07:05:17.248Z,93.95
2023-03-24T07:06:17.243Z,94.15
2023-03-24T07:07:44.746Z,94.15
2023-03-24T07:09:17.228Z,93.90
2023-03-24T07:10:17.216Z,93.60
2023-03-24T07:11:17.212Z,93.70
2023-03-24T07:12:17.204Z,93.50
2023-03-24T07:13:17.192Z,93.40
2023-03-24T07:14:17.186Z,93.70
2023-03-24T07:15:17.179Z,93.60
2023-03-24T07:16:17.185Z,93.19
2023-03-24T07:17:17.234Z,92.58
2023-03-24T07:18:17.205Z,92.58
2023-03-24T07:19:17.157Z,92.79
2023-03-24T07:20:17.146Z,92.44
2023-03-24T07:21:17.142Z,92.49
2023-03-24T07:22:17.131Z,91.52
2023-03-24T07:23:17.126Z,91.38
2023-03-24T07:24:17.121Z,91.48
2023-03-24T07:25:17.117Z,91.27
2023-03-24T07:26:17.186Z,90.62
2023-03-24T07:27:17.136Z,90.11
2023-03-24T07:28:17.093Z,90.11
2023-03-24T07:29:17.089Z,89.46
2023-03-24T07:30:19.145Z,89.15
2023-03-24T07:31:17.126Z,89.01
2023-03-24T07:32:17.070Z,88.10
2023-03-24T07:33:17.064Z,87.69
2023-03-24T07:34:17.055Z,87.69
2023-03-24T07:35:17.049Z,87.34
2023-03-24T07:36:17.118Z,86.74
2023-03-24T07:37:17.036Z,86.94
2023-03-24T07:38:17.144Z,86.43
2023-03-24T07:39:17.033Z,86.83
2023-03-24T07:40:17.021Z,86.22
2023-03-24T07:41:17.011Z,86.39
2023-03-24T07:42:17.007Z,85.52
2023-03-24T07:43:17.002Z,86.19
2023-03-24T07:44:16.996Z,85.88
2023-03-24T07:45:16.990Z,86.02
2023-03-24T07:46:17.098Z,85.62
2023-03-24T07:47:17.097Z,86.53
2023-03-24T07:48:17.028Z,86.22
2023-03-24T07:49:19.804Z,86.83
2023-03-24T07:50:16.961Z,86.37
2023-03-24T07:51:16.958Z,86.68
2023-03-24T07:52:16.948Z,87.43
2023-03-24T07:53:16.946Z,88.13
2023-03-24T07:54:16.943Z,88.44
2023-03-24T07:55:16.935Z,88.54
2023-03-24T07:56:16.925Z,88.44
2023-03-24T07:57:17.030Z,88.75
2023-03-24T07:58:16.951Z,88.65
2023-03-24T07:59:16.935Z,89.26
2023-03-24T08:00:16.901Z,89.87
2023-03-24T08:01:16.895Z,89.70
2023-03-24T08:02:16.987Z,89.91
2023-03-24T08:03:17.015Z,89.61
2023-03-24T08:04:16.986Z,90.22
2023-03-24T08:05:16.875Z,90.83
2023-03-24T08:06:16.870Z,91.23
2023-03-24T08:07:16.861Z,91.13
2023-03-24T08:08:16.861Z,90.42
2023-03-24T08:09:16.849Z,90.42
2023-03-24T08:10:16.838Z,91.84
2023-03-24T08:11:16.867Z,91.33
2023-03-24T08:12:20.441Z,91.27
2023-03-24T08:13:16.826Z,91.03
2023-03-24T08:14:16.814Z,90.72
2023-03-24T08:15:16.813Z,90.83
2023-03-24T08:16:16.900Z,90.83
2023-03-24T08:17:16.804Z,90.72
2023-03-24T08:18:16.796Z,90.42
2023-03-24T08:19:16.790Z,90.11
2023-03-24T08:20:16.786Z,90.11
2023-03-24T08:21:16.772Z,90.42
2023-03-24T08:22:16.767Z,90.72
2023-03-24T08:23:16.808Z,90.62
2023-03-24T08:24:16.753Z,90.52
2023-03-24T08:25:16.751Z,90.77
2023-03-24T08:26:16.740Z,91.07
2023-03-24T08:27:16.735Z,90.46
2023-03-24T08:28:16.725Z,90.66
2023-03-24T08:29:16.741Z,90.66
2023-03-24T08:30:16.822Z,90.77
2023-03-24T08:31:16.750Z,90.05
2023-03-24T08:32:16.710Z,89.85
2023-03-24T08:33:16.760Z,89.54
2023-03-24T08:34:16.692Z,89.40
2023-03-24T08:35:16.687Z,89.70
2023-03-24T08:36:16.738Z,90.16
2023-03-24T08:37:16.681Z,90.56
2023-03-24T08:38:18.740Z,90.36
2023-03-24T08:39:16.660Z,89.85
2023-03-24T08:40:16.662Z,90.46
2023-03-24T08:41:16.649Z,90.25
2023-03-24T08:42:16.637Z,90.16
2023-03-24T08:43:16.633Z,90.05
2023-03-24T08:44:16.629Z,90.36
2023-03-24T08:45:23.807Z,90.56
2023-03-24T08:47:10.064Z,89.81
2023-03-24T08:48:10.074Z,89.61
2023-03-24T08:49:10.045Z,89.20
2023-03-24T08:50:10.043Z,89.30
2023-03-24T08:51:10.022Z,88.28
2023-03-24T08:52:10.029Z,88.44
2023-03-24T08:53:10.009Z,88.75
2023-03-24T08:54:10.003Z,88.85
2023-03-24T08:55:10.003Z,88.04
2023-03-24T08:56:10.004Z,88.04
2023-03-24T08:57:10.000Z,87.73
2023-03-24T08:58:09.979Z,87.53
2023-03-24T08:59:09.975Z,87.43
2023-03-24T09:00:09.969Z,87.43
2023-03-24T09:01:10.006Z,87.29
2023-03-24T09:02:09.951Z,87.29
2023-03-24T09:03:09.961Z,87.38
2023-03-24T09:04:09.951Z,86.88
2023-03-24T09:05:09.950Z,86.88
2023-03-24T09:06:09.930Z,86.77
2023-03-24T09:07:09.960Z,86.88
2023-03-24T09:08:09.914Z,86.88
2023-03-24T09:09:09.909Z,86.07
2023-03-24T09:10:09.912Z,86.57
2023-03-24T09:11:09.904Z,86.98
2023-03-24T09:12:09.892Z,86.98
2023-03-24T09:13:09.893Z,86.83
2023-03-24T09:14:09.877Z,86.94
2023-03-24T09:15:10.770Z,85.72
2023-03-24T09:16:09.926Z,85.92
2023-03-24T09:17:09.858Z,85.92
2023-03-24T09:18:09.854Z,85.92
2023-03-24T09:19:09.844Z,86.22
2023-03-24T09:20:09.845Z,86.33
2023-03-24T09:21:09.832Z,86.63
2023-03-24T09:22:09.829Z,86.19
2023-03-24T09:23:09.825Z,85.38
2023-03-24T09:24:09.818Z,85.78
2023-03-24T09:25:09.820Z,85.98
2023-03-24T09:26:09.816Z,85.64
2023-03-24T09:27:09.804Z,84.93
2023-03-24T09:28:09.795Z,84.93
2023-03-24T09:29:09.795Z,84.72
2023-03-24T09:30:09.782Z,83.77
2023-03-24T09:31:09.822Z,83.67
2023-03-24T09:32:09.779Z,83.77
2023-03-24T09:33:09.819Z,82.62
2023-03-24T09:34:09.767Z,82.92
2023-03-24T09:35:09.757Z,82.31
2023-03-24T09:36:09.810Z,82.28
2023-03-24T09:37:09.744Z,82.28
2023-03-24T09:38:09.738Z,81.87
2023-03-24T09:39:09.732Z,81.52
2023-03-24T09:40:09.727Z,81.43
2023-03-24T09:41:09.721Z,80.52
2023-03-24T09:42:09.718Z,80.72
2023-03-24T09:43:09.711Z,80.21
2023-03-24T09:44:09.714Z,80.72
2023-03-24T09:45:09.704Z,80.01
2023-03-24T09:46:09.718Z,80.21
2023-03-24T09:47:09.695Z,80.21
2023-03-24T09:48:09.729Z,80.92
2023-03-24T09:49:09.686Z,80.41
2023-03-24T09:50:09.694Z,80.31
2023-03-24T09:51:09.676Z,80.11
2023-03-24T09:52:09.667Z,80.31
2023-03-24T09:53:09.688Z,80.52
2023-03-24T09:54:09.698Z,80.52
2023-03-24T09:55:09.662Z,80.52
2023-03-24T09:56:09.667Z,80.21
2023-03-24T09:57:09.687Z,79.77
2023-03-24T09:58:09.640Z,79.36
2023-03-24T09:59:09.636Z,79.77
2023-03-24T10:00:09.632Z,79.36
2023-03-24T10:01:09.643Z,79.53
2023-03-24T10:02:09.622Z,79.43
2023-03-24T10:03:09.662Z,78.62
2023-03-24T10:04:09.635Z,78.45
2023-03-24T10:05:09.628Z,77.84
2023-03-24T10:06:09.607Z,79.06
2023-03-24T10:07:09.604Z,79.26
2023-03-24T10:08:09.597Z,79.36
2023-03-24T10:09:09.589Z,79.60
2023-03-24T10:10:09.594Z,79.60
2023-03-24T10:11:09.596Z,79.30
2023-03-24T10:12:09.589Z,79.50
2023-03-24T10:13:09.589Z,79.50
2023-03-24T10:14:09.572Z,78.89
2023-03-24T10:15:09.586Z,79.06
2023-03-24T10:16:09.602Z,79.26
2023-03-24T10:17:09.557Z,78.45
2023-03-24T10:18:09.571Z,78.15
2023-03-24T10:19:11.408Z,78.15
2023-03-24T10:20:09.566Z,76.23
2023-03-24T10:21:09.536Z,76.59
2023-03-24T10:22:09.528Z,76.09
2023-03-24T10:23:09.528Z,75.85
2023-03-24T10:24:09.520Z,75.65
2023-03-24T10:25:09.538Z,75.95
2023-03-24T10:26:09.516Z,74.94
2023-03-24T10:27:09.542Z,73.83
2023-03-24T10:28:09.505Z,73.83
2023-03-24T10:29:09.503Z,73.52
2023-03-24T10:30:09.521Z,73.63
2023-03-24T10:31:09.493Z,72.92
2023-03-24T10:32:09.545Z,72.21
2023-03-24T10:33:09.517Z,72.61
2023-03-24T10:34:09.478Z,72.81
2023-03-24T10:35:09.554Z,73.39
2023-03-24T10:36:09.492Z,72.85
2023-03-24T10:37:09.470Z,72.24
2023-03-24T10:38:09.465Z,71.20
2023-03-24T10:39:18.566Z,72.51
2023-03-24T10:40:09.457Z,72.61
2023-03-24T10:41:09.455Z,71.87
2023-03-24T10:42:09.454Z,71.47
2023-03-24T10:43:09.533Z,70.66
2023-03-24T10:44:09.444Z,70.96
2023-03-24T10:45:09.438Z,70.96
2023-03-24T10:46:09.544Z,71.47
2023-03-24T10:47:09.430Z,71.50
2023-03-24T10:48:09.655Z,71.60
2023-03-24T10:49:09.422Z,72.04
2023-03-24T10:50:12.838Z,72.34
2023-03-24T10:51:09.416Z,72.78
2023-03-24T10:52:09.416Z,73.39
2023-03-24T10:53:09.408Z,72.78
2023-03-24T10:54:09.404Z,73.69
2023-03-24T10:55:09.402Z,73.19
2023-03-24T10:56:09.396Z,73.46
2023-03-24T10:57:09.454Z,73.15
2023-03-24T10:58:09.387Z,73.35
2023-03-24T10:59:09.385Z,72.75
2023-03-24T11:00:09.380Z,72.85
2023-03-24T11:01:09.439Z,72.95
2023-03-24T11:02:09.407Z,72.24
2023-03-24T11:03:09.423Z,72.14
2023-03-24T11:04:09.371Z,71.84
2023-03-24T11:05:09.363Z,72.04
2023-03-24T11:06:09.353Z,72.04
2023-03-24T11:07:09.349Z,72.34
2023-03-24T11:08:09.348Z,72.28
2023-03-24T11:09:09.351Z,72.08
2023-03-24T11:10:09.351Z,72.38
2023-03-24T11:11:09.338Z,72.58
2023-03-24T11:12:09.329Z,72.78
2023-03-24T11:13:09.325Z,72.88
2023-03-24T11:14:09.320Z,72.88
2023-03-24T11:15:17.995Z,72.58
2023-03-24T11:16:09.332Z,72.08
2023-03-24T11:17:09.353Z,72.08
2023-03-24T11:18:09.380Z,72.08
2023-03-24T11:19:09.302Z,73.39
2023-03-24T11:20:09.296Z,72.95
2023-03-24T11:21:09.306Z,71.87
2023-03-24T11:22:09.333Z,71.73
2023-03-24T11:23:09.295Z,72.55
2023-03-24T11:24:09.280Z,72.64
2023-03-24T11:25:09.276Z,72.04
2023-03-24T11:26:09.277Z,71.94
2023-03-24T11:27:09.272Z,71.91
2023-03-24T11:28:09.264Z,71.80
2023-03-24T11:29:09.260Z,71.17
2023-03-24T11:30:09.259Z,71.60
2023-03-24T11:31:09.281Z,70.39
2023-03-24T11:32:09.319Z,69.58
2023-03-24T11:33:09.248Z,68.98
2023-03-24T11:34:09.356Z,68.71
2023-03-24T11:35:09.248Z,68.20
2023-03-24T11:36:09.533Z,68.87
2023-03-24T11:37:09.247Z,67.60
2023-03-24T11:38:09.238Z,66.35
2023-03-24T11:39:09.222Z,67.56
2023-03-24T11:40:09.221Z,67.86
2023-03-24T11:41:09.218Z,67.69
2023-03-24T11:42:09.210Z,68.51
2023-03-24T11:43:09.208Z,68.51
2023-03-24T11:44:09.204Z,68.20
2023-03-24T11:45:09.201Z,68.10
2023-03-24T11:46:09.271Z,68.00
2023-03-24T11:47:09.202Z,67.46
2023-03-24T11:48:09.228Z,67.90
2023-03-24T11:49:09.188Z,67.60
2023-03-24T11:50:09.242Z,68.07
2023-03-24T11:51:09.175Z,67.76
2023-03-24T11:52:09.181Z,68.07
2023-03-24T11:53:09.170Z,67.66
2023-03-24T11:54:09.167Z,67.06
2023-03-24T11:55:09.172Z,67.93
2023-03-24T11:56:09.174Z,67.63
2023-03-24T11:57:09.175Z,68.64
2023-03-24T11:58:09.150Z,68.33
2023-03-24T11:59:09.167Z,66.42
2023-03-24T12:00:09.144Z,67.63
2023-03-24T12:01:09.142Z,67.43
2023-03-24T12:02:09.142Z,67.66
2023-03-24T12:03:09.252Z,67.93
2023-03-24T12:04:09.129Z,67.63
2023-03-24T12:05:09.132Z,66.39
2023-03-24T12:06:09.154Z,66.79
2023-03-24T12:07:09.116Z,66.36
2023-03-24T12:08:09.112Z,66.86
2023-03-24T12:09:09.118Z,66.46
2023-03-24T12:10:09.112Z,65.95
2023-03-24T12:11:09.105Z,65.45
2023-03-24T12:12:09.112Z,65.35
2023-03-24T12:13:13.456Z,65.75
2023-03-24T12:14:09.112Z,65.85
2023-03-24T12:15:20.730Z,65.85
2023-03-24T12:16:09.150Z,66.05
2023-03-24T12:17:09.097Z,66.08
2023-03-24T12:18:09.096Z,64.78
2023-03-24T12:19:09.081Z,64.87
2023-03-24T12:20:09.088Z,64.47
2023-03-24T12:21:09.070Z,64.47
2023-03-24T12:22:09.069Z,64.27
2023-03-24T12:23:09.061Z,63.79
2023-03-24T12:24:09.060Z,62.18
2023-03-24T12:25:09.114Z,61.77
2023-03-24T12:26:09.064Z,61.60
2023-03-24T12:27:09.049Z,61.00
2023-03-24T12:28:09.048Z,61.51
2023-03-24T12:29:09.280Z,61.60
2023-03-24T12:30:09.052Z,62.41
2023-03-24T12:31:09.088Z,63.62
2023-03-24T12:32:09.042Z,63.73
2023-03-24T12:33:09.029Z,64.33
2023-03-24T12:34:09.019Z,64.43
2023-03-24T12:35:09.088Z,64.43
2023-03-24T12:36:09.030Z,65.95
2023-03-24T12:37:09.014Z,64.76
2023-03-24T12:38:09.014Z,66.08
2023-03-24T12:39:09.007Z,66.38
2023-03-24T12:40:09.010Z,65.98
2023-03-24T12:41:09.000Z,64.76
2023-03-24T12:42:08.993Z,63.76
2023-03-24T12:43:08.989Z,63.96
2023-03-24T12:44:09.021Z,64.26
2023-03-24T12:45:08.989Z,64.16
2023-03-24T12:46:08.990Z,63.65
2023-03-24T12:47:08.978Z,63.96
2023-03-24T12:48:09.012Z,64.29
2023-03-24T12:49:08.968Z,64.56
2023-03-24T12:50:08.968Z,63.18
2023-03-24T12:51:08.959Z,62.16
2023-03-24T12:52:08.967Z,61.56
2023-03-24T12:53:10.074Z,60.96
2023-03-24T12:54:08.946Z,59.03